createdAt,value
2018-11-28T00:00:43.814Z,14.20
2018-11-28T00:03:13.040Z,16.33
2018-11-28T00:05:41.931Z,13.40
2018-11-28T00:08:11.164Z,11.77
2018-11-28T00:10:40.101Z,14.77
2018-11-28T00:13:08.925Z,12.67
2018-11-28T00:15:37.734Z,15.97
2018-11-28T00:18:06.538Z,18.97
2018-11-28T00:20:35.792Z,10.83
2018-11-28T00:23:05.002Z,15.27
2018-11-28T00:25:33.854Z,11.85
2018-11-28T00:28:02.694Z,18.87
2018-11-28T00:30:31.544Z,14.93
2018-11-28T00:33:00.341Z,16.27
2018-11-28T00:35:29.183Z,13.50
2018-11-28T00:37:58.376Z,10.93
2018-11-28T00:40:27.266Z,10.25
2018-11-28T00:42:56.467Z,16.27
2018-11-28T00:45:25.838Z,16.77
2018-11-28T00:47:54.647Z,12.90
2018-11-28T00:50:24.058Z,24.55
2018-11-28T00:52:53.270Z,20.90
2018-11-28T00:55:22.567Z,17.80
2018-11-28T00:57:51.443Z,20.33
2018-11-28T01:00:21.549Z,24.10
2018-11-28T01:02:50.638Z,23.63
2018-11-28T01:05:19.541Z,24.63
2018-11-28T01:07:49.179Z,25.13
2018-11-28T01:10:19.245Z,15.18
2018-11-28T01:12:48.333Z,25.53
2018-11-28T01:15:18.343Z,32.57
2018-11-28T01:17:47.328Z,29.63
2018-11-28T01:20:17.866Z,27.73
2018-11-28T01:22:46.762Z,26.87
2018-11-28T01:25:16.033Z,35.33
2018-11-28T01:27:44.905Z,35.63
2018-11-28T01:30:15.083Z,38.60
2018-11-28T01:32:44.028Z,40.43
2018-11-28T01:35:15.100Z,33.70
2018-11-28T01:37:44.318Z,43.07
2018-11-28T01:40:14.577Z,27.40
2018-11-28T01:42:43.386Z,25.83
2018-11-28T01:45:15.717Z,36.63
2018-11-28T01:47:44.698Z,25.10
2018-11-28T01:50:13.994Z,32.60
2018-11-28T01:52:43.317Z,28.17
2018-11-28T01:55:14.002Z,32.37
2018-11-28T01:57:42.822Z,30.60
2018-11-28T02:00:20.283Z,22.87
2018-11-28T02:02:49.951Z,21.57
2018-11-28T02:05:18.758Z,27.53
2018-11-28T02:07:47.562Z,16.83
2018-11-28T02:10:16.907Z,22.00
2018-11-28T02:12:45.740Z,29.03
2018-11-28T02:15:16.882Z,21.97
2018-11-28T02:17:45.901Z,25.07
2018-11-28T02:20:16.270Z,27.20
2018-11-28T02:22:45.290Z,20.43
2018-11-28T02:25:15.374Z,17.37
2018-11-28T02:27:44.730Z,18.87
2018-11-28T02:30:18.273Z,17.23
2018-11-28T02:32:47.541Z,16.63
2018-11-28T02:35:16.522Z,22.17
2018-11-28T02:37:45.360Z,17.13
2018-11-28T02:40:15.543Z,21.43
2018-11-28T02:42:44.485Z,22.75
2018-11-28T02:45:15.530Z,17.10
2018-11-28T02:47:44.370Z,16.20
2018-11-28T02:50:13.597Z,19.97
2018-11-28T02:52:42.761Z,15.30
2018-11-28T02:55:11.971Z,23.23
2018-11-28T02:57:41.103Z,16.67
2018-11-28T03:00:17.646Z,17.50
2018-11-28T03:02:46.471Z,23.00
2018-11-28T03:05:15.305Z,15.77
2018-11-28T03:07:44.118Z,19.77
2018-11-28T03:10:13.626Z,14.37
2018-11-28T03:12:42.877Z,12.77
2018-11-28T03:15:13.306Z,7.57
2018-11-28T03:17:42.526Z,10.10
2018-11-28T03:20:11.416Z,10.97
2018-11-28T03:22:40.239Z,9.53
2018-11-28T03:25:09.809Z,12.83
2018-11-28T03:27:38.595Z,5.40
2018-11-28T03:30:12.246Z,4.10
2018-11-28T03:32:41.051Z,8.30
2018-11-28T03:35:10.659Z,7.50
2018-11-28T03:37:39.508Z,7.13
2018-11-28T03:40:08.392Z,6.40
2018-11-28T03:42:37.202Z,5.43
2018-11-28T03:45:09.552Z,3.90
2018-11-28T03:47:38.437Z,2.20
2018-11-28T03:50:08.011Z,2.00
2018-11-28T03:52:37.054Z,1.87
2018-11-28T03:55:07.022Z,4.03
2018-11-28T03:57:36.298Z,6.17
2018-11-28T04:00:07.055Z,5.37
2018-11-28T04:02:35.909Z,5.10
2018-11-28T04:05:05.676Z,3.63
2018-11-28T04:07:34.693Z,3.93
2018-11-28T04:10:04.048Z,8.47
2018-11-28T04:12:32.910Z,6.20
2018-11-28T04:15:01.762Z,8.13
2018-11-28T04:17:30.564Z,4.67
2018-11-28T04:19:59.374Z,5.20
2018-11-28T04:22:28.544Z,5.80
2018-11-28T04:24:57.466Z,6.70
2018-11-28T04:27:26.303Z,6.40
2018-11-28T04:29:55.083Z,6.33
2018-11-28T04:32:24.311Z,1.60
2018-11-28T04:34:53.631Z,4.27
2018-11-28T04:37:22.550Z,6.67
2018-11-28T04:39:51.371Z,1.93
2018-11-28T04:42:20.198Z,7.60
2018-11-28T04:44:49.011Z,5.60
2018-11-28T04:47:18.202Z,6.07
2018-11-28T04:49:47.146Z,4.83
2018-11-28T04:52:16.352Z,7.77
2018-11-28T04:54:45.243Z,5.93
2018-11-28T04:57:14.087Z,2.83
2018-11-28T04:59:42.919Z,3.63
2018-11-28T05:02:11.751Z,4.97
2018-11-28T05:04:40.546Z,4.87
2018-11-28T05:07:39.689Z,4.30
2018-11-28T05:10:09.919Z,2.40
2018-11-28T05:12:45.464Z,3.53
2018-11-28T05:15:15.944Z,2.87
2018-11-28T05:17:46.055Z,4.83
2018-11-28T05:20:15.454Z,2.10
2018-11-28T05:22:44.306Z,3.70
2018-11-28T05:25:19.439Z,1.97
2018-11-28T05:27:48.627Z,5.07
2018-11-28T05:30:17.880Z,2.60
2018-11-28T05:32:46.715Z,3.80
2018-11-28T05:35:17.106Z,2.53
2018-11-28T05:37:45.986Z,2.00
2018-11-28T05:40:19.455Z,2.80
2018-11-28T05:42:48.347Z,2.03
2018-11-28T05:45:17.170Z,3.03
2018-11-28T05:47:46.027Z,4.00
2018-11-28T05:50:15.391Z,6.37
2018-11-28T05:52:44.635Z,5.93
2018-11-28T05:55:13.951Z,7.47
2018-11-28T05:57:44.058Z,8.33
2018-11-28T06:00:12.982Z,8.67
2018-11-28T06:02:41.817Z,9.73
2018-11-28T06:05:10.659Z,7.77
2018-11-28T06:07:39.867Z,16.27
2018-11-28T06:10:08.770Z,18.33
2018-11-28T06:12:37.601Z,15.58
2018-11-28T06:15:07.826Z,16.10
2018-11-28T06:17:36.882Z,24.47
2018-11-28T06:20:09.246Z,21.50
2018-11-28T06:22:38.567Z,20.15
2018-11-28T06:25:16.001Z,28.37
2018-11-28T06:27:38.283Z,26.33
2018-11-28T06:30:08.353Z,20.10
2018-11-28T06:32:37.198Z,25.50
2018-11-28T06:35:06.738Z,29.63
2018-11-28T06:37:35.913Z,24.73
2018-11-28T06:40:06.684Z,27.57
2018-11-28T06:42:35.598Z,21.90
2018-11-28T06:45:04.863Z,28.77
2018-11-28T06:47:33.655Z,28.47
2018-11-28T06:50:02.855Z,21.13
2018-11-28T06:52:31.851Z,24.35
2018-11-28T06:55:01.075Z,21.60
2018-11-28T06:57:30.011Z,24.40
2018-11-28T06:59:58.822Z,26.30
2018-11-28T07:02:28.058Z,27.45
2018-11-28T07:04:57.387Z,21.17
2018-11-28T07:07:26.391Z,22.67
2018-11-28T07:09:55.190Z,20.87
2018-11-28T07:12:24.374Z,25.30
2018-11-28T07:14:53.266Z,19.03
2018-11-28T07:17:22.135Z,23.67
2018-11-28T07:19:50.949Z,25.00
2018-11-28T07:22:19.775Z,27.57
2018-11-28T07:24:48.603Z,24.80
2018-11-28T07:27:17.417Z,22.33
2018-11-28T07:29:46.274Z,23.50
2018-11-28T07:32:15.165Z,26.17
2018-11-28T07:34:44.031Z,18.50
2018-11-28T07:37:12.933Z,26.17
2018-11-28T07:39:41.780Z,24.60
2018-11-28T07:42:10.613Z,23.10
2018-11-28T07:44:42.267Z,28.87
2018-11-28T07:47:11.088Z,25.17
2018-11-28T07:49:39.942Z,21.07
2018-11-28T07:52:09.163Z,19.03
2018-11-28T07:54:38.079Z,23.43
2018-11-28T07:57:06.952Z,30.47
2018-11-28T07:59:35.787Z,24.80
2018-11-28T08:02:04.852Z,23.70
2018-11-28T08:04:33.707Z,23.47
2018-11-28T08:07:02.557Z,22.20
2018-11-28T08:09:31.383Z,24.37
2018-11-28T08:12:00.612Z,24.77
2018-11-28T08:14:29.536Z,24.27
2018-11-28T08:16:58.339Z,19.80
2018-11-28T08:19:27.182Z,25.63
2018-11-28T08:21:56.011Z,24.00
2018-11-28T08:24:24.806Z,18.07
2018-11-28T08:26:53.658Z,19.33
2018-11-28T08:29:22.543Z,17.57
2018-11-28T08:31:51.347Z,25.60
2018-11-28T08:34:20.624Z,17.70
2018-11-28T08:36:49.535Z,18.97
2018-11-28T08:39:18.401Z,16.30
2018-11-28T08:41:47.223Z,22.33
2018-11-28T08:44:16.075Z,25.53
2018-11-28T08:46:44.978Z,23.33
2018-11-28T08:49:13.752Z,22.87
2018-11-28T08:51:42.599Z,20.87
2018-11-28T08:54:11.822Z,16.70
2018-11-28T08:59:16.074Z,25.77
2018-11-28T09:01:44.866Z,18.10
2018-11-28T09:04:13.667Z,21.27
2018-11-28T09:06:42.595Z,16.87
2018-11-28T09:09:11.387Z,21.10
2018-11-28T09:11:40.572Z,20.03
2018-11-28T09:14:09.516Z,21.13
2018-11-28T09:16:38.365Z,21.93
2018-11-28T09:19:07.194Z,28.67
2018-11-28T09:21:35.998Z,20.37
2018-11-28T09:24:04.896Z,18.03
2018-11-28T09:26:33.689Z,22.47
2018-11-28T09:29:02.531Z,17.30
2018-11-28T09:31:31.334Z,18.23
2018-11-28T09:34:00.214Z,15.30
2018-11-28T09:36:29.439Z,17.65
2018-11-28T09:38:58.420Z,24.50
2018-11-28T09:41:27.619Z,24.00
2018-11-28T09:43:56.535Z,23.80
2018-11-28T09:46:25.342Z,15.43
2018-11-28T09:48:54.189Z,24.70
2018-11-28T09:51:22.984Z,21.03
2018-11-28T09:53:51.891Z,25.80
2018-11-28T09:56:20.717Z,18.20
2018-11-28T09:58:49.522Z,33.77
2018-11-28T10:01:19.123Z,26.00
2018-11-28T10:03:48.343Z,21.43
2018-11-28T10:06:17.256Z,15.70
2018-11-28T10:08:46.110Z,19.53
2018-11-28T10:11:14.922Z,15.93
2018-11-28T10:13:43.759Z,25.40
2018-11-28T10:16:12.580Z,25.30
2018-11-28T10:18:41.820Z,17.03
2018-11-28T10:21:10.744Z,27.10
2018-11-28T10:23:39.539Z,18.73
2018-11-28T10:26:08.379Z,23.07
2018-11-28T10:28:37.248Z,21.87
2018-11-28T10:31:06.270Z,24.77
2018-11-28T10:33:35.093Z,23.73
2018-11-28T10:36:03.947Z,17.03
2018-11-28T10:38:32.904Z,24.10
2018-11-28T10:41:01.722Z,26.90
2018-11-28T10:43:30.555Z,28.25
2018-11-28T10:45:59.840Z,20.27
2018-11-28T10:48:28.804Z,26.73
2018-11-28T10:50:57.607Z,17.12
2018-11-28T10:53:26.409Z,24.10
2018-11-28T10:55:55.319Z,24.67
2018-11-28T10:58:27.179Z,21.10
2018-11-28T11:01:00.131Z,19.87
2018-11-28T11:03:34.348Z,20.20
2018-11-28T11:06:04.879Z,28.07
2018-11-28T11:08:38.958Z,18.00
2018-11-28T11:11:13.142Z,24.43
2018-11-28T11:13:47.295Z,22.27
2018-11-28T11:16:20.390Z,25.60
2018-11-28T11:18:49.406Z,21.90
2018-11-28T11:21:19.396Z,17.70
2018-11-28T11:23:48.191Z,25.33
2018-11-28T11:26:16.999Z,30.70
2018-11-28T11:28:45.936Z,26.90
2018-11-28T11:31:14.783Z,30.03
2018-11-28T11:33:43.662Z,25.57
2018-11-28T11:36:12.475Z,26.20
2018-11-28T11:38:41.348Z,21.30
2018-11-28T11:41:10.147Z,20.37
2018-11-28T11:43:40.712Z,21.83
2018-11-28T11:46:09.645Z,20.73
2018-11-28T11:48:38.556Z,33.30
2018-11-28T11:51:07.391Z,33.80
2018-11-28T11:53:36.891Z,32.07
2018-11-28T11:56:06.806Z,27.47
2018-11-28T11:58:35.704Z,31.23
2018-11-28T12:01:05.892Z,28.00
2018-11-28T12:03:34.863Z,29.07
2018-11-28T12:06:04.249Z,21.03
2018-11-28T12:08:33.114Z,26.57
2018-11-28T12:11:02.016Z,32.17
2018-11-28T12:13:31.102Z,26.17
2018-11-28T12:16:00.009Z,23.93
2018-11-28T12:18:28.889Z,34.05
2018-11-28T12:20:58.707Z,27.87
2018-11-28T12:23:27.565Z,33.58
2018-11-28T12:25:56.426Z,31.40
2018-11-28T12:28:25.239Z,27.23
2018-11-28T12:30:54.102Z,24.10
2018-11-28T12:33:22.919Z,25.37
2018-11-28T12:35:52.391Z,50.57
2018-11-28T12:38:21.695Z,33.33
2018-11-28T12:40:50.920Z,37.30
2018-11-28T12:43:20.574Z,30.53
2018-11-28T12:45:49.925Z,27.63
2018-11-28T12:48:19.464Z,29.07
2018-11-28T12:50:48.391Z,32.93
2018-11-28T12:53:17.179Z,34.03
2018-11-28T12:55:46.021Z,32.00
2018-11-28T12:58:16.204Z,24.07
2018-11-28T13:00:45.182Z,37.03
2018-11-28T13:03:14.887Z,33.43
2018-11-28T13:05:43.687Z,34.47
2018-11-28T13:08:12.574Z,41.40
2018-11-28T13:10:41.683Z,36.97
2018-11-28T13:13:10.878Z,30.00
2018-11-28T13:15:39.735Z,32.83
2018-11-28T13:18:09.072Z,32.50
2018-11-28T13:20:38.306Z,38.13
2018-11-28T13:23:07.611Z,25.40
2018-11-28T13:25:36.395Z,20.57
2018-11-28T13:28:05.319Z,28.80
2018-11-28T13:30:34.124Z,35.47
2018-11-28T13:33:02.917Z,25.83
2018-11-28T13:35:31.722Z,28.30
2018-11-28T13:38:04.004Z,22.47
2018-11-28T13:40:32.818Z,32.13
2018-11-28T13:43:01.638Z,36.10
2018-11-28T13:45:31.142Z,24.97
2018-11-28T13:48:00.005Z,24.97
2018-11-28T13:50:28.834Z,29.63
2018-11-28T13:52:58.050Z,32.93
2018-11-28T13:55:38.423Z,29.40
2018-11-28T13:58:03.049Z,36.80
2018-11-28T14:00:31.870Z,31.13
2018-11-28T14:03:00.735Z,30.63
2018-11-28T14:05:29.545Z,30.90
2018-11-28T14:07:58.350Z,36.13
2018-11-28T14:10:27.226Z,38.67
2018-11-28T14:12:56.046Z,32.63
2018-11-28T14:15:24.843Z,28.23
2018-11-28T14:17:54.311Z,28.63
2018-11-28T14:20:23.130Z,29.50
2018-11-28T14:22:51.971Z,26.73
2018-11-28T14:25:20.783Z,27.70
2018-11-28T14:27:49.950Z,29.33
2018-11-28T14:30:19.298Z,25.00
2018-11-28T14:32:48.166Z,26.60
2018-11-28T14:35:17.040Z,25.90
2018-11-28T14:37:45.923Z,41.50
2018-11-28T14:40:15.231Z,32.23
2018-11-28T14:42:44.567Z,24.40
2018-11-28T14:45:13.860Z,27.97
2018-11-28T14:47:42.890Z,20.30
2018-11-28T14:50:14.039Z,26.87
2018-11-28T14:52:43.351Z,30.23
2018-11-28T14:57:47.991Z,22.47
2018-11-28T15:00:19.270Z,31.43
2018-11-28T15:02:48.710Z,33.90
2018-11-28T15:05:22.532Z,20.67
2018-11-28T15:07:52.258Z,17.23
2018-11-28T15:10:23.122Z,20.93
2018-11-28T15:12:51.919Z,32.10
2018-11-28T15:15:21.664Z,26.20
2018-11-28T15:17:50.630Z,20.17
2018-11-28T15:20:20.384Z,21.77
2018-11-28T15:22:49.322Z,33.33
2018-11-28T15:25:18.181Z,24.40
2018-11-28T15:27:46.973Z,21.10
2018-11-28T15:30:15.834Z,20.57
2018-11-28T15:32:44.671Z,23.60
2018-11-28T15:35:13.476Z,21.53
2018-11-28T15:37:42.264Z,17.40
2018-11-28T15:40:11.101Z,21.73
2018-11-28T15:42:40.013Z,24.00
2018-11-28T15:45:09.246Z,20.23
2018-11-28T15:47:38.045Z,17.30
2018-11-28T15:50:08.051Z,18.40
2018-11-28T15:52:37.813Z,24.70
2018-11-28T15:55:07.479Z,18.00
2018-11-28T15:57:36.691Z,23.77
2018-11-28T16:00:09.081Z,21.40
2018-11-28T16:02:38.349Z,17.73
2018-11-28T16:05:07.684Z,25.33
2018-11-28T16:07:36.478Z,18.23
2018-11-28T16:10:11.975Z,22.93
2018-11-28T16:12:40.815Z,20.13
2018-11-28T16:15:10.878Z,19.60
2018-11-28T16:17:39.733Z,23.37
2018-11-28T16:20:08.542Z,20.00
2018-11-28T16:27:31.847Z,24.13
2018-11-28T16:30:00.710Z,23.23
2018-11-28T16:32:29.982Z,21.30
2018-11-28T16:34:58.908Z,15.80
2018-11-28T16:37:28.071Z,21.10
2018-11-28T16:39:56.963Z,23.27
2018-11-28T16:42:26.246Z,17.93
2018-11-28T16:44:55.088Z,16.77
2018-11-28T16:47:24.003Z,19.20
2018-11-28T16:49:52.846Z,19.87
2018-11-28T16:52:22.060Z,24.27
2018-11-28T16:54:51.035Z,19.87
2018-11-28T16:57:20.188Z,25.67
2018-11-28T16:59:49.056Z,27.13
2018-11-28T17:02:18.634Z,30.40
2018-11-28T17:04:47.434Z,28.90
2018-11-28T17:07:16.319Z,18.00
2018-11-28T17:09:45.118Z,25.73
2018-11-28T17:12:13.975Z,20.07
2018-11-28T17:14:42.815Z,22.27
2018-11-28T17:17:11.681Z,23.33
2018-11-28T17:19:40.569Z,18.27
2018-11-28T17:22:09.437Z,18.10
2018-11-28T17:24:38.224Z,24.17
2018-11-28T17:27:07.105Z,23.80
2018-11-28T17:29:35.901Z,21.00
2018-11-28T17:32:04.936Z,19.43
2018-11-28T17:34:33.751Z,19.73
2018-11-28T17:37:02.631Z,18.47
2018-11-28T17:39:31.462Z,16.07
2018-11-28T17:42:00.316Z,22.67
2018-11-28T17:44:29.483Z,21.17
2018-11-28T17:46:58.386Z,19.67
2018-11-28T17:49:28.108Z,15.73
2018-11-28T17:51:56.229Z,19.47
2018-11-28T17:54:25.058Z,16.03
2018-11-28T17:56:53.941Z,20.50
2018-11-28T17:59:23.196Z,23.70
2018-11-28T18:01:52.167Z,28.80
2018-11-28T18:04:21.001Z,24.57
2018-11-28T18:06:49.837Z,31.93
2018-11-28T18:09:19.727Z,31.93
2018-11-28T18:11:48.604Z,25.10
2018-11-28T18:14:17.431Z,27.53
2018-11-28T18:16:46.260Z,28.30
2018-11-28T18:19:15.092Z,20.20
2018-11-28T18:21:44.638Z,27.60
2018-11-28T18:24:13.461Z,23.00
2018-11-28T18:26:42.271Z,21.43
2018-11-28T18:29:11.106Z,28.57
2018-11-28T18:31:39.902Z,27.47
2018-11-28T18:34:08.751Z,26.17
2018-11-28T18:36:37.623Z,31.97
2018-11-28T18:39:08.682Z,26.07
2018-11-28T18:41:37.747Z,23.13
2018-11-28T18:44:06.607Z,21.90
2018-11-28T18:46:35.411Z,24.40
2018-11-28T18:49:04.259Z,20.80
2018-11-28T18:51:33.074Z,24.43
2018-11-28T18:54:01.980Z,28.13
2018-11-28T18:56:30.802Z,21.73
2018-11-28T18:58:59.660Z,21.67
2018-11-28T19:01:28.487Z,20.27
2018-11-28T19:03:58.246Z,26.83
2018-11-28T19:06:27.391Z,27.30
2018-11-28T19:08:56.207Z,28.57
2018-11-28T19:11:25.215Z,34.70
2018-11-28T19:13:54.030Z,27.03
2018-11-28T19:16:22.899Z,26.13
2018-11-28T19:18:51.687Z,24.93
2018-11-28T19:21:20.475Z,31.20
2018-11-28T19:23:49.340Z,18.43
2018-11-28T19:26:18.587Z,23.57
2018-11-28T19:28:47.538Z,21.97
2018-11-28T19:31:16.391Z,19.47
2018-11-28T19:33:45.607Z,22.30
2018-11-28T19:36:14.960Z,21.90
2018-11-28T19:38:43.854Z,29.77
2018-11-28T19:41:23.147Z,20.23
2018-11-28T19:43:52.059Z,26.00
2018-11-28T19:46:20.926Z,21.57
2018-11-28T19:48:49.745Z,16.53
2018-11-28T19:51:19.377Z,25.43
2018-11-28T19:53:48.247Z,30.27
2018-11-28T19:56:17.439Z,27.23
2018-11-28T19:58:46.482Z,29.17
2018-11-28T20:01:15.354Z,26.40
2018-11-28T20:03:44.143Z,28.53
2018-11-28T20:06:13.038Z,19.23
2018-11-28T20:08:41.872Z,26.40
2018-11-28T20:11:10.698Z,21.90
2018-11-28T20:13:40.311Z,27.55
2018-11-28T20:16:09.282Z,28.43
2018-11-28T20:18:38.491Z,17.43
2018-11-28T20:21:07.455Z,22.90
2018-11-28T20:23:36.266Z,20.80
2018-11-28T20:26:05.226Z,25.77
2018-11-28T20:28:34.097Z,19.03
2018-11-28T20:31:02.922Z,21.13
2018-11-28T20:33:31.763Z,16.63
2018-11-28T20:36:00.635Z,23.33
2018-11-28T20:38:32.531Z,31.90
2018-11-28T20:41:01.411Z,23.30
2018-11-28T20:43:30.300Z,23.70
2018-11-28T20:45:59.178Z,23.50
2018-11-28T20:48:28.390Z,20.47
2018-11-28T20:50:57.249Z,25.27
2018-11-28T20:53:26.042Z,19.80
2018-11-28T20:55:55.271Z,31.63
2018-11-28T20:58:24.479Z,22.67
2018-11-28T21:00:53.863Z,22.40
2018-11-28T21:03:23.199Z,25.43
2018-11-28T21:05:52.547Z,17.70
2018-11-28T21:08:21.455Z,26.83
2018-11-28T21:10:50.312Z,26.97
2018-11-28T21:13:19.220Z,17.40
2018-11-28T21:15:48.547Z,23.12
2018-11-28T21:18:17.498Z,28.23
2018-11-28T21:20:47.091Z,26.87
2018-11-28T21:23:16.751Z,16.83
2018-11-28T21:25:45.672Z,21.60
2018-11-28T21:28:14.491Z,24.00
2018-11-28T21:30:43.896Z,25.30
2018-11-28T21:33:13.162Z,22.97
2018-11-28T21:35:43.475Z,18.67
2018-11-28T21:38:12.272Z,22.50
2018-11-28T21:40:41.106Z,28.77
2018-11-28T21:43:10.372Z,25.85
2018-11-28T21:45:39.753Z,24.23
2018-11-28T21:48:08.641Z,20.20
2018-11-28T21:50:37.489Z,22.15
2018-11-28T21:53:07.190Z,19.77
2018-11-28T21:55:36.083Z,23.13
2018-11-28T21:58:05.622Z,29.40
2018-11-28T22:00:35.536Z,18.77
2018-11-28T22:03:04.778Z,24.77
2018-11-28T22:05:33.649Z,29.47
2018-11-28T22:08:03.135Z,26.30
2018-11-28T22:10:32.138Z,23.90
2018-11-28T22:13:00.939Z,25.33
2018-11-28T22:15:29.790Z,27.00
2018-11-28T22:17:59.998Z,27.57
2018-11-28T22:20:28.856Z,24.85
2018-11-28T22:22:58.843Z,22.30
2018-11-28T22:25:27.934Z,27.17
2018-11-28T22:27:56.812Z,26.53
2018-11-28T22:30:26.262Z,21.53
2018-11-28T22:32:55.109Z,25.33
2018-11-28T22:35:23.998Z,25.53
2018-11-28T22:37:52.875Z,28.30
2018-11-28T22:40:22.185Z,23.67
2018-11-28T22:42:51.139Z,31.60
2018-11-28T22:45:28.110Z,24.57
2018-11-28T22:47:57.024Z,29.63
2018-11-28T22:50:25.815Z,20.88
2018-11-28T22:52:54.668Z,27.53
2018-11-28T22:55:23.515Z,24.37
2018-11-28T22:57:52.418Z,23.20
2018-11-28T23:00:27.062Z,26.23
2018-11-28T23:02:57.925Z,24.40
2018-11-28T23:05:30.179Z,25.27
2018-11-28T23:08:00.394Z,21.30
2018-11-28T23:10:29.302Z,23.75
2018-11-28T23:12:58.163Z,24.57
2018-11-28T23:15:27.427Z,29.07
2018-11-28T23:17:56.330Z,20.77
2018-11-28T23:20:25.535Z,32.60
2018-11-28T23:22:54.438Z,24.40
2018-11-28T23:25:23.394Z,28.60
2018-11-28T23:27:52.451Z,25.63
2018-11-28T23:30:21.665Z,24.70
2018-11-28T23:32:50.830Z,16.90
2018-11-28T23:35:20.046Z,24.20
2018-11-28T23:37:49.254Z,21.13
2018-11-28T23:40:21.461Z,20.10
2018-11-28T23:42:50.903Z,17.97
2018-11-28T23:45:20.298Z,20.87
2018-11-28T23:47:49.402Z,23.77
2018-11-28T23:50:18.726Z,16.67
2018-11-28T23:52:47.792Z,16.60
2018-11-28T23:55:19.707Z,14.87
2018-11-28T23:57:49.070Z,19.60
